Time;durP1;ratioP1;P1;durP2;ratioP2;P2;SDS_P1;SDS_P2;PMS_P1;PMS_P2;Temp;Humidity;BMP_temperature;BMP_pressure;BME280_temperature;BME280_humidity;BME280_pressure;Samples;Min_cycle;Max_cycle;Signal;HPM_P1;HPM_P2
2022/10/01 00:01:43;;;;;;;;;;;;;;;11.14;62.95;100892.09;5036186;28;19925;-53
2022/10/01 00:04:09;;;;;;;;;;;;;;;11.12;63.00;100886.94;5038298;28;19936;-50
2022/10/01 00:06:34;;;;;;;;;;;;;;;11.10;63.21;100883.53;5038119;28;19925;-50
2022/10/01 00:09:00;;;;;;;;;;;;;;;11.08;63.08;100884.56;5040510;28;20015;-49
2022/10/01 00:11:25;;;;;;;;;;;;;;;11.05;63.05;100876.84;5040595;28;19980;-51
2022/10/01 00:13:51;;;;;;;;;;;;;;;11.02;63.15;100877.88;5037634;28;20299;-53
2022/10/01 00:16:18;;;;;;;;;;;;;;;10.97;63.10;100875.47;5042019;28;20399;-52
2022/10/01 00:18:44;;;;;;;;;;;;;;;10.94;63.25;100873.03;5040815;28;19929;-49
2022/10/01 00:21:11;;;;;;;;;;;;;;;10.89;63.27;100867.19;5038526;28;20261;-50
2022/10/01 00:23:37;;;;;;;;;;;;;;;10.88;63.42;100869.91;5035425;28;19955;-51
2022/10/01 00:26:28;;;;;;;;;;;;;;;10.85;63.26;100864.81;5040842;28;20332;-52
2022/10/01 00:28:58;;;;;;;;;;;;;;;10.83;63.42;100871.00;5041468;28;20042;-50
2022/10/01 00:31:23;;;;;;;;;;;;;;;10.80;63.58;100858.03;5031473;28;19939;-51
2022/10/01 00:33:51;;;;;;;;;;;;;;;10.77;63.41;100852.94;5036592;28;20899;-52
2022/10/01 00:36:16;;;;;;;;;;;;;;;10.78;63.50;100853.78;5038996;28;19920;-49
2022/10/01 00:38:41;;;;;;;;;;;;;;;10.76;63.46;100847.75;5036203;28;20797;-49
2022/10/01 00:41:07;;;;;;;;;;;;;;;10.77;63.46;100852.09;5039797;28;19925;-48
2022/10/01 00:43:36;;;;;;;;;;;;;;;10.76;63.45;100850.41;5046676;28;21236;-49
2022/10/01 00:46:25;;;;;;;;;;;;;;;10.74;63.59;100849.63;5036114;28;19921;-49
2022/10/01 00:49:25;;;;;;;;;;;;;;;10.72;63.40;100848.88;5029320;28;19962;-50
2022/10/01 00:51:56;;;;;;;;;;;;;;;10.69;63.55;100849.91;4954790;28;19933;-50
2022/10/01 00:54:22;;;;;;;;;;;;;;;10.68;63.53;100846.41;5022318;28;19925;-52
2022/10/01 00:56:50;;;;;;;;;;;;;;;10.68;63.65;100837.66;5036946;28;19920;-52
2022/10/01 00:59:15;;;;;;;;;;;;;;;10.67;63.75;100843.88;5036729;28;19940;-49
2022/10/01 01:01:40;;;;;;;;;;;;;;;10.63;63.77;100835.31;5043879;28;19925;-50
2022/10/01 01:04:15;;;;;;;;;;;;;;;10.60;63.92;100838.09;5035628;28;20367;-49
2022/10/01 01:06:52;;;;;;;;;;;;;;;10.57;63.77;100833.00;5035974;28;19924;-49
2022/10/01 01:09:18;;;;;;;;;;;;;;;10.57;64.03;100830.38;5037915;28;19928;-49
2022/10/01 01:11:52;;;;;;;;;;;;;;;10.58;63.92;100836.50;5043311;28;19925;-49
2022/10/01 01:14:31;;;;;;;;;;;;;;;10.60;63.93;100832.84;5030927;28;19924;-52
2022/10/01 01:17:00;;;;;;;;;;;;;;;10.63;63.82;100829.19;5038709;28;19963;-50
2022/10/01 01:19:49;;;;;;;;;;;;;;;10.67;64.01;100830.72;5035285;28;19928;-51
2022/10/01 01:22:17;;;;;;;;;;;;;;;10.70;63.81;100834.94;5037234;28;19938;-50
2022/10/01 01:24:50;;;;;;;;;;;;;;;10.72;63.91;100827.81;5037599;28;19924;-49
2022/10/01 01:27:34;;;;;;;;;;;;;;;10.74;63.74;100825.94;5034926;28;19917;-50
2022/10/01 01:30:00;;;;;;;;;;;;;;;10.76;63.95;100824.06;5045522;28;19921;-50
2022/10/01 01:32:29;;;;;;;;;;;;;;;10.77;63.95;100815.25;5035927;28;19943;-48
2022/10/01 01:34:55;;;;;;;;;;;;;;;10.78;63.85;100816.94;5035866;28;20292;-49
2022/10/01 01:37:23;;;;;;;;;;;;;;;10.80;63.77;100815.06;5038449;28;19960;-49
2022/10/01 01:39:51;;;;;;;;;;;;;;;10.81;63.93;100811.50;5037100;28;19929;-49
2022/10/01 01:42:20;;;;;;;;;;;;;;;10.80;64.03;100809.81;5039411;28;20343;-49
2022/10/01 01:44:46;;;;;;;;;;;;;;;10.80;64.01;100804.53;5041219;28;19913;-51
2022/10/01 01:47:12;;;;;;;;;;;;;;;10.78;63.96;100807.25;5043375;28;20376;-50
2022/10/01 01:49:38;;;;;;;;;;;;;;;10.80;63.88;100809.81;5041174;28;20381;-49
2022/10/01 01:52:16;;;;;;;;;;;;;;;10.79;63.99;100802.84;5041773;28;20375;-50
2022/10/01 01:54:43;;;;;;;;;;;;;;;10.79;64.03;100802.84;5037345;28;19925;-50
2022/10/01 01:57:09;;;;;;;;;;;;;;;10.77;63.87;100794.19;5040896;28;19929;-53
2022/10/01 01:59:35;;;;;;;;;;;;;;;10.74;64.17;100800.47;5044116;28;19929;-50
2022/10/01 02:02:02;;;;;;;;;;;;;;;10.75;63.96;100794.25;5035333;28;19925;-50
2022/10/01 02:04:36;;;;;;;;;;;;;;;10.74;64.07;100797.81;5038801;28;20411;-49
2022/10/01 02:07:02;;;;;;;;;;;;;;;10.74;64.04;100789.09;5040470;28;19955;-49
2022/10/01 02:09:56;;;;;;;;;;;;;;;10.71;64.21;100789.25;5040004;28;19925;-49
2022/10/01 02:12:54;;;;;;;;;;;;;;;10.66;64.31;100787.75;4986086;28;19917;-50
2022/10/01 02:15:51;;;;;;;;;;;;;;;10.65;64.35;100786.06;5004365;28;20277;-51
2022/10/01 02:18:28;;;;;;;;;;;;;;;10.64;64.32;100775.63;5004045;28;19926;-51
2022/10/01 02:20:58;;;;;;;;;;;;;;;10.63;64.41;100776.53;5040519;28;20284;-51
2022/10/01 02:23:28;;;;;;;;;;;;;;;10.64;64.41;100780.88;5042383;28;20024;-53
2022/10/01 02:25:57;;;;;;;;;;;;;;;10.63;64.24;100777.41;5042051;28;19920;-49
2022/10/01 02:28:22;;;;;;;;;;;;;;;10.64;64.48;100784.38;5044295;28;19929;-49
2022/10/01 02:30:49;;;;;;;;;;;;;;;10.63;64.25;100776.53;5039461;28;19940;-49
2022/10/01 02:33:17;;;;;;;;;;;;;;;10.63;64.55;100766.03;5041592;28;20057;-52
2022/10/01 02:35:44;;;;;;;;;;;;;;;10.62;64.25;100765.19;5034289;28;19963;-49
2022/10/01 02:38:10;;;;;;;;;;;;;;;10.60;64.41;100771.44;5039518;28;19944;-49
2022/10/01 02:40:39;;;;;;;;;;;;;;;10.57;64.51;100776.91;5036651;28;19924;-49
2022/10/01 02:43:12;;;;;;;;;;;;;;;10.55;64.48;100778.78;5035772;28;19928;-49
2022/10/01 02:45:39;;;;;;;;;;;;;;;10.51;64.43;100771.06;5038811;28;19933;-49
2022/10/01 02:48:07;;;;;;;;;;;;;;;10.50;64.44;100773.78;5045102;28;19920;-49
2022/10/01 02:50:52;;;;;;;;;;;;;;;10.48;64.63;100767.75;5036836;28;19921;-49
2022/10/01 02:53:25;;;;;;;;;;;;;;;10.48;64.69;100765.13;5040693;28;19928;-50
2022/10/01 02:55:51;;;;;;;;;;;;;;;10.48;64.63;100770.41;5040345;28;19935;-53
2022/10/01 02:58:17;;;;;;;;;;;;;;;10.50;64.68;100768.53;5036878;28;19920;-50
2022/10/01 03:00:43;;;;;;;;;;;;;;;10.50;64.59;100766.72;5031646;28;19933;-49
2022/10/01 03:03:08;;;;;;;;;;;;;;;10.51;64.48;100767.59;5029166;28;19928;-52
2022/10/01 03:05:33;;;;;;;;;;;;;;;10.52;64.41;100758.75;5040652;28;19978;-49
2022/10/01 03:07:59;;;;;;;;;;;;;;;10.53;64.65;100749.91;5046646;28;19917;-51
2022/10/01 03:10:24;;;;;;;;;;;;;;;10.55;64.42;100760.38;5039955;28;19932;-49
2022/10/01 03:12:49;;;;;;;;;;;;;;;10.56;64.61;100759.44;5041466;28;19975;-54
2022/10/01 03:15:18;;;;;;;;;;;;;;;10.57;64.54;100753.25;5046343;28;19925;-49
2022/10/01 03:17:43;;;;;;;;;;;;;;;10.57;64.51;100751.44;5042877;28;20299;-51
2022/10/01 03:20:09;;;;;;;;;;;;;;;10.57;64.60;100748.81;5027649;28;20878;-51
2022/10/01 03:22:34;;;;;;;;;;;;;;;10.57;64.60;100748.81;5045502;28;19975;-51
2022/10/01 03:24:59;;;;;;;;;;;;;;;10.56;64.55;100749.75;5040949;28;19924;-50
2022/10/01 03:27:25;;;;;;;;;;;;;;;10.57;64.53;100745.34;5046870;28;19927;-50
2022/10/01 03:29:50;;;;;;;;;;;;;;;10.55;64.49;100748.03;5048780;28;19995;-49
2022/10/01 03:32:15;;;;;;;;;;;;;;;10.55;64.65;100739.31;5045655;28;20426;-54
2022/10/01 03:34:41;;;;;;;;;;;;;;;10.53;64.49;100739.38;5042895;28;19940;-49
2022/10/01 03:37:06;;;;;;;;;;;;;;;10.52;64.61;100738.56;5042947;28;19921;-52
2022/10/01 03:39:32;;;;;;;;;;;;;;;10.50;64.68;100735.16;5045544;28;19925;-49
2022/10/01 03:41:57;;;;;;;;;;;;;;;10.49;64.69;100730.84;5048869;28;19987;-51
2022/10/01 03:44:23;;;;;;;;;;;;;;;10.48;64.71;100729.13;5046849;28;19929;-49
2022/10/01 03:46:48;;;;;;;;;;;;;;;10.47;64.68;100726.59;5044286;28;19920;-49
2022/10/01 03:49:13;;;;;;;;;;;;;;;10.46;64.65;100722.28;5049291;28;19925;-50
2022/10/01 03:51:39;;;;;;;;;;;;;;;10.44;64.80;100719.72;5043844;28;19928;-51
2022/10/01 03:54:05;;;;;;;;;;;;;;;10.43;64.61;100719.81;5044738;28;19969;-52
2022/10/01 03:56:30;;;;;;;;;;;;;;;10.41;64.72;100717.28;5045364;28;19986;-52
2022/10/01 03:58:55;;;;;;;;;;;;;;;10.41;64.69;100719.06;5047076;28;20004;-52
2022/10/01 04:01:21;;;;;;;;;;;;;;;10.40;64.70;100722.63;5045564;28;21115;-51
2022/10/01 04:03:48;;;;;;;;;;;;;;;10.39;64.90;100710.41;5044547;28;19920;-51
2022/10/01 04:06:13;;;;;;;;;;;;;;;10.36;64.82;100712.22;5024016;28;19933;-49
2022/10/01 04:08:39;;;;;;;;;;;;;;;10.34;64.80;100714.13;5039545;28;19925;-49
2022/10/01 04:11:05;;;;;;;;;;;;;;;10.34;64.78;100714.13;5033961;28;20012;-51
2022/10/01 04:13:30;;;;;;;;;;;;;;;10.32;64.83;100705.47;5041409;28;19929;-50
2022/10/01 04:15:56;;;;;;;;;;;;;;;10.31;64.78;100703.78;5041304;28;20075;-52
2022/10/01 04:18:21;;;;;;;;;;;;;;;10.31;64.92;100698.53;5041515;28;20439;-50
2022/10/01 04:20:47;;;;;;;;;;;;;;;10.29;64.81;100700.38;5044924;28;19928;-51
2022/10/01 04:23:12;;;;;;;;;;;;;;;10.29;64.91;100695.13;5041039;28;20146;-51
2022/10/01 04:25:37;;;;;;;;;;;;;;;10.28;64.87;100697.84;5038055;28;19928;-49
2022/10/01 04:28:04;;;;;;;;;;;;;;;10.27;64.88;100697.00;5035327;28;20938;-53
2022/10/01 04:30:30;;;;;;;;;;;;;;;10.27;64.94;100702.25;5038361;28;19925;-50
2022/10/01 04:32:56;;;;;;;;;;;;;;;10.29;64.84;100694.25;5039450;28;20872;-50
2022/10/01 04:35:21;;;;;;;;;;;;;;;10.28;65.03;100693.44;5042560;28;19929;-50
2022/10/01 04:37:48;;;;;;;;;;;;;;;10.30;64.97;100688.06;5037335;28;19921;-49
2022/10/01 04:40:13;;;;;;;;;;;;;;;10.29;65.09;100684.59;5036882;28;20320;-50
2022/10/01 04:42:41;;;;;;;;;;;;;;;10.29;64.84;100684.59;5038882;28;19940;-51
2022/10/01 04:45:07;;;;;;;;;;;;;;;10.30;64.99;100686.31;5034391;28;19971;-52
2022/10/01 04:47:32;;;;;;;;;;;;;;;10.30;64.90;100680.19;5035906;28;20368;-49
2022/10/01 04:49:58;;;;;;;;;;;;;;;10.29;65.06;100676.72;5044192;28;20008;-49
2022/10/01 04:52:23;;;;;;;;;;;;;;;10.31;65.05;100677.47;5038707;28;19924;-52
2022/10/01 04:54:51;;;;;;;;;;;;;;;10.31;65.07;100680.09;5039318;28;20519;-51
2022/10/01 04:57:16;;;;;;;;;;;;;;;10.33;64.94;100680.88;5034795;28;19943;-50
2022/10/01 04:59:41;;;;;;;;;;;;;;;10.34;65.12;100686.97;5036685;28;20383;-49
2022/10/01 05:02:07;;;;;;;;;;;;;;;10.33;65.04;100686.13;5035190;28;19929;-49
2022/10/01 05:04:32;;;;;;;;;;;;;;;10.34;65.19;100679.94;5042291;28;20308;-50
2022/10/01 05:06:57;;;;;;;;;;;;;;;10.36;65.12;100677.22;5042138;28;19925;-51
2022/10/01 05:09:23;;;;;;;;;;;;;;;10.36;65.13;100679.84;5040675;28;19932;-49
2022/10/01 05:11:50;;;;;;;;;;;;;;;10.35;65.25;100676.38;5037059;28;19921;-51
2022/10/01 05:14:18;;;;;;;;;;;;;;;10.35;65.08;100672.88;5041205;28;19924;-49
2022/10/01 05:16:43;;;;;;;;;;;;;;;10.35;65.24;100679.00;5034903;28;19978;-52
2022/10/01 05:19:08;;;;;;;;;;;;;;;10.36;65.38;100678.03;5034981;28;19938;-52
2022/10/01 05:21:35;;;;;;;;;;;;;;;10.37;65.40;100677.09;5036992;28;19925;-52
2022/10/01 05:24:00;;;;;;;;;;;;;;;10.38;65.39;100672.75;5036825;28;19960;-51
2022/10/01 05:26:26;;;;;;;;;;;;;;;10.39;65.28;100671.81;5039266;28;20012;-50
2022/10/01 05:28:52;;;;;;;;;;;;;;;10.39;65.48;100673.56;5045153;28;19925;-50
2022/10/01 05:31:18;;;;;;;;;;;;;;;10.41;65.33;100662.03;5039415;28;19928;-50
2022/10/01 05:33:43;;;;;;;;;;;;;;;10.44;65.33;100666.28;5036310;28;19964;-50
2022/10/01 05:36:08;;;;;;;;;;;;;;;10.44;65.45;100661.84;5035609;28;20015;-50
2022/10/01 05:38:36;;;;;;;;;;;;;;;10.47;65.48;100660.84;5039350;28;20379;-51
2022/10/01 05:41:02;;;;;;;;;;;;;;;10.48;65.45;100655.47;5039259;28;19935;-51
2022/10/01 05:43:27;;;;;;;;;;;;;;;10.51;65.53;100657.09;5038230;28;20388;-51
2022/10/01 05:46:04;;;;;;;;;;;;;;;10.52;65.53;100656.13;5039131;28;19921;-50
2022/10/01 05:48:37;;;;;;;;;;;;;;;10.56;65.65;100656.81;5041308;28;20277;-52
2022/10/01 05:51:07;;;;;;;;;;;;;;;10.58;65.50;100653.16;5016439;28;20315;-49
2022/10/01 05:53:36;;;;;;;;;;;;;;;10.60;65.52;100651.28;5037354;28;19934;-51
2022/10/01 05:56:02;;;;;;;;;;;;;;;10.63;65.47;100645.84;5041370;28;19924;-52
2022/10/01 05:58:28;;;;;;;;;;;;;;;10.65;65.51;100641.34;5034855;28;19920;-52
2022/10/01 06:00:54;;;;;;;;;;;;;;;10.68;65.51;100633.25;5037142;28;19979;-54
2022/10/01 06:03:19;;;;;;;;;;;;;;;10.71;65.52;100642.75;5041679;28;20380;-52
2022/10/01 06:05:45;;;;;;;;;;;;;;;10.74;65.59;100636.44;5032112;28;19931;-49
2022/10/01 06:08:10;;;;;;;;;;;;;;;10.76;65.56;100637.22;5037053;28;20442;-51
2022/10/01 06:10:36;;;;;;;;;;;;;;;10.79;65.55;100632.59;5045425;28;19925;-49
2022/10/01 06:13:05;;;;;;;;;;;;;;;10.83;65.49;100630.63;5034792;28;19928;-49
2022/10/01 06:15:33;;;;;;;;;;;;;;;10.85;65.41;100623.47;5037126;28;19935;-48
2022/10/01 06:18:02;;;;;;;;;;;;;;;10.87;65.53;100618.97;5034657;28;19921;-51
2022/10/01 06:20:27;;;;;;;;;;;;;;;10.89;65.55;100611.84;5036830;28;19929;-50
2022/10/01 06:22:54;;;;;;;;;;;;;;;10.93;65.51;100604.59;5043439;28;20332;-50
2022/10/01 06:25:20;;;;;;;;;;;;;;;10.96;65.28;100610.53;5043117;28;19929;-50
2022/10/01 06:27:54;;;;;;;;;;;;;;;11.00;65.34;100599.78;5036651;28;19986;-50
2022/10/01 06:30:19;;;;;;;;;;;;;;;11.03;65.43;100600.47;5037304;28;19925;-51
2022/10/01 06:32:45;;;;;;;;;;;;;;;11.05;65.31;100593.28;5039596;28;19935;-53
2022/10/01 06:35:11;;;;;;;;;;;;;;;11.09;65.30;100593.97;5035565;28;19929;-50
2022/10/01 06:37:37;;;;;;;;;;;;;;;11.11;65.28;100582.38;5040028;28;19932;-52
2022/10/01 06:40:03;;;;;;;;;;;;;;;11.16;65.05;100590.00;5044368;28;19929;-51
2022/10/01 06:42:28;;;;;;;;;;;;;;;11.19;65.22;100591.59;5036054;28;19925;-53
2022/10/01 06:44:53;;;;;;;;;;;;;;;11.21;65.10;100587.94;5033890;28;19921;-50
2022/10/01 06:47:18;;;;;;;;;;;;;;;11.24;65.28;100593.00;5036944;28;20444;-51
2022/10/01 06:49:44;;;;;;;;;;;;;;;11.27;65.03;100582.25;5034749;28;20384;-52
2022/10/01 06:54:53;;;;;;;;;;;;;;;11.34;64.92;100573.97;5039715;28;20968;-51
2022/10/01 06:57:19;;;;;;;;;;;;;;;11.38;64.88;100564.94;5046155;28;19928;-49
2022/10/01 06:59:44;;;;;;;;;;;;;;;11.41;64.83;100562.13;5031540;28;19928;-51
2022/10/01 07:02:18;;;;;;;;;;;;;;;11.46;64.83;100560.00;5034688;28;19928;-50
2022/10/01 07:04:46;;;;;;;;;;;;;;;11.51;64.80;100551.81;5034824;28;19920;-52
2022/10/01 07:07:12;;;;;;;;;;;;;;;11.56;64.65;100550.59;5011749;28;19923;-51
2022/10/01 07:09:37;;;;;;;;;;;;;;;11.60;64.45;100545.94;5015002;28;19921;-52
2022/10/01 07:12:02;;;;;;;;;;;;;;;11.66;64.82;100544.69;5032680;28;20348;-49
2022/10/01 07:14:28;;;;;;;;;;;;;;;11.72;64.44;100541.69;5045775;28;20407;-51
2022/10/01 07:16:53;;;;;;;;;;;;;;;11.75;64.39;100541.44;5021133;28;19935;-51
2022/10/01 07:19:19;;;;;;;;;;;;;;;11.77;64.29;100536.94;5039808;28;20351;-49
2022/10/01 07:21:46;;;;;;;;;;;;;;;11.80;64.37;100542.00;5039289;28;20877;-51
2022/10/01 07:24:12;;;;;;;;;;;;;;;11.83;64.29;100533.03;5028876;28;20348;-49
2022/10/01 07:26:37;;;;;;;;;;;;;;;11.84;64.33;100527.69;5032299;28;19956;-50
2022/10/01 07:29:03;;;;;;;;;;;;;;;11.84;64.11;100532.94;5032939;28;19990;-50
2022/10/01 07:31:28;;;;;;;;;;;;;;;11.87;64.12;100532.72;5033271;28;20398;-52
2022/10/01 07:33:57;;;;;;;;;;;;;;;11.88;64.22;100523.88;5035593;28;20376;-50
2022/10/01 07:36:22;;;;;;;;;;;;;;;11.93;64.00;100520.09;5032410;28;20385;-52
2022/10/01 07:38:50;;;;;;;;;;;;;;;11.95;64.22;100523.47;5036067;28;19932;-51
2022/10/01 07:41:16;;;;;;;;;;;;;;;11.97;64.34;100514.50;5038153;28;19920;-50
2022/10/01 07:43:42;;;;;;;;;;;;;;;12.00;64.03;100516.13;5030720;28;19931;-51
2022/10/01 07:46:08;;;;;;;;;;;;;;;12.03;63.84;100511.50;5032481;28;19952;-50
2022/10/01 07:48:33;;;;;;;;;;;;;;;12.08;63.96;100505.91;5036288;28;20327;-52
2022/10/01 07:50:59;;;;;;;;;;;;;;;12.10;64.03;100501.38;5037285;28;19925;-49
2022/10/01 07:53:24;;;;;;;;;;;;;;;12.14;63.82;100505.50;5033888;28;20039;-49
2022/10/01 07:55:49;;;;;;;;;;;;;;;12.17;63.92;100505.28;5035717;28;19925;-49
2022/10/01 07:58:20;;;;;;;;;;;;;;;12.20;63.88;100498.94;5033515;28;19924;-49
2022/10/01 08:00:46;;;;;;;;;;;;;;;12.24;63.73;100491.66;5036716;28;19928;-51
2022/10/01 08:03:11;;;;;;;;;;;;;;;12.28;63.76;100491.34;5033958;28;19924;-49
2022/10/01 08:05:39;;;;;;;;;;;;;;;12.33;63.68;100483.97;5038904;28;19925;-52
2022/10/01 08:08:05;;;;;;;;;;;;;;;12.37;63.71;100471.41;5039495;28;20040;-54
2022/10/01 08:10:34;;;;;;;;;;;;;;;12.40;63.60;100471.19;5038621;28;20388;-50
2022/10/01 08:13:07;;;;;;;;;;;;;;;12.43;63.43;100473.63;5038212;28;19925;-52
2022/10/01 08:15:32;;;;;;;;;;;;;;;12.46;63.46;100470.78;5040445;28;19923;-50
2022/10/01 08:18:02;;;;;;;;;;;;;;;12.46;63.56;100465.50;5039210;28;19920;-50
2022/10/01 08:20:33;;;;;;;;;;;;;;;12.47;63.39;100461.91;5041810;28;19963;-51
2022/10/01 08:23:03;;;;;;;;;;;;;;;12.48;63.32;100460.09;5042272;28;19929;-50
2022/10/01 08:25:28;;;;;;;;;;;;;;;12.50;63.49;100451.09;5037983;28;19921;-51
2022/10/01 08:27:53;;;;;;;;;;;;;;;12.55;63.28;100447.31;5044705;28;20033;-50
2022/10/01 08:30:22;;;;;;;;;;;;;;;12.55;63.27;100448.16;5037569;28;19999;-50
2022/10/01 08:32:47;;;;;;;;;;;;;;;12.56;63.17;100436.63;5046261;28;20346;-50
2022/10/01 08:35:12;;;;;;;;;;;;;;;12.59;63.23;100433.78;5039536;28;20385;-51
2022/10/01 08:37:38;;;;;;;;;;;;;;;12.63;63.29;100431.75;5045449;28;20352;-50
2022/10/01 08:40:03;;;;;;;;;;;;;;;12.68;63.19;100437.56;5041189;28;19936;-50
2022/10/01 08:42:51;;;;;;;;;;;;;;;12.72;63.02;100425.84;5043363;28;19932;-49
2022/10/01 08:45:20;;;;;;;;;;;;;;;12.76;62.89;100424.66;5035358;28;20297;-48
2022/10/01 08:47:48;;;;;;;;;;;;;;;12.80;63.03;100414.72;5037475;28;19916;-51
2022/10/01 08:50:14;;;;;;;;;;;;;;;12.81;62.86;100411.97;5039907;28;19924;-50
2022/10/01 08:52:47;;;;;;;;;;;;;;;12.85;62.96;100417.88;5043001;28;19931;-52
2022/10/01 08:55:19;;;;;;;;;;;;;;;12.89;62.89;100416.69;5040588;28;19974;-51
2022/10/01 08:57:48;;;;;;;;;;;;;;;12.92;62.83;100405.91;5042061;28;20102;-51
2022/10/01 09:00:15;;;;;;;;;;;;;;;12.97;62.95;100410.84;5033548;28;19927;-50
2022/10/01 09:02:42;;;;;;;;;;;;;;;13.00;62.85;100397.41;5033101;28;19946;-50
2022/10/01 09:05:23;;;;;;;;;;;;;;;13.04;62.89;100390.97;5039085;28;19925;-51
2022/10/01 09:07:54;;;;;;;;;;;;;;;13.06;62.85;100391.69;5038829;28;20489;-50
2022/10/01 09:10:20;;;;;;;;;;;;;;;13.09;62.73;100399.38;5039838;28;19925;-50
2022/10/01 09:13:03;;;;;;;;;;;;;;;13.14;62.62;100396.41;5038234;28;19923;-51
2022/10/01 09:15:34;;;;;;;;;;;;;;;13.17;62.64;100384.75;5040603;28;19925;-49
2022/10/01 09:18:18;;;;;;;;;;;;;;;13.20;62.53;100385.38;5040837;28;19921;-49
2022/10/01 09:20:51;;;;;;;;;;;;;;;13.21;62.53;100380.94;5043032;28;19939;-49
2022/10/01 09:23:19;;;;;;;;;;;;;;;13.21;62.60;100381.78;5038575;28;19920;-50
2022/10/01 09:25:49;;;;;;;;;;;;;;;13.22;62.50;100380.81;5043430;28;20331;-50
2022/10/01 09:28:14;;;;;;;;;;;;;;;13.26;62.41;100379.63;5043564;28;19927;-51
2022/10/01 09:30:42;;;;;;;;;;;;;;;13.28;62.29;100366.31;5043807;28;19921;-53
2022/10/01 09:33:16;;;;;;;;;;;;;;;13.29;62.54;100373.28;5040942;28;19932;-50
2022/10/01 09:35:47;;;;;;;;;;;;;;;13.30;62.25;100368.84;5043885;28;19938;-55
2022/10/01 09:38:19;;;;;;;;;;;;;;;13.30;62.20;100359.09;5033045;28;20434;-49
2022/10/01 09:40:54;;;;;;;;;;;;;;;13.30;62.34;100359.09;5032472;28;19920;-52
2022/10/01 09:43:22;;;;;;;;;;;;;;;13.32;62.36;100357.19;5034770;28;19925;-52
2022/10/01 09:45:47;;;;;;;;;;;;;;;13.33;62.33;100364.16;5041470;28;19924;-52
2022/10/01 09:48:16;;;;;;;;;;;;;;;13.37;62.29;100356.84;5044558;28;19931;-52
2022/10/01 09:50:49;;;;;;;;;;;;;;;13.40;62.27;100349.53;5033533;28;20273;-52
2022/10/01 09:53:19;;;;;;;;;;;;;;;13.45;62.23;100346.56;5044225;28;19967;-52
2022/10/01 09:55:46;;;;;;;;;;;;;;;13.51;62.08;100345.25;5028464;28;19920;-52
2022/10/01 09:58:15;;;;;;;;;;;;;;;13.54;62.11;100332.66;5032402;28;20023;-52
2022/10/01 10:00:40;;;;;;;;;;;;;;;13.61;61.86;100330.38;5029723;28;19928;-51
2022/10/01 10:03:06;;;;;;;;;;;;;;;13.67;61.85;100329.91;5040314;28;19944;-53
2022/10/01 10:05:48;;;;;;;;;;;;;;;13.73;61.88;100328.59;5036841;28;20296;-51
2022/10/01 10:08:25;;;;;;;;;;;;;;;13.80;61.76;100323.66;5038395;28;19981;-52
2022/10/01 10:10:54;;;;;;;;;;;;;;;13.86;61.63;100336.38;5042606;28;19925;-52
2022/10/01 10:13:43;;;;;;;;;;;;;;;13.91;61.53;100325.47;5030742;28;19969;-50
2022/10/01 10:16:17;;;;;;;;;;;;;;;13.96;61.60;100313.56;5033866;28;20289;-52
2022/10/01 10:18:47;;;;;;;;;;;;;;;14.02;61.47;100321.00;5042496;28;19921;-51
2022/10/01 10:21:18;;;;;;;;;;;;;;;14.10;61.24;100308.97;5036954;28;20229;-52
2022/10/01 10:23:54;;;;;;;;;;;;;;;14.16;61.13;100293.44;5035458;28;19932;-51
2022/10/01 10:26:41;;;;;;;;;;;;;;;14.21;61.04;100295.72;5033083;28;19925;-51
2022/10/01 10:29:23;;;;;;;;;;;;;;;14.27;60.86;100292.59;5030894;28;19929;-52
2022/10/01 10:31:49;;;;;;;;;;;;;;;14.35;60.76;100291.13;5029898;28;20352;-51
2022/10/01 10:34:16;;;;;;;;;;;;;;;14.38;60.76;100281.13;5035445;28;20031;-52
2022/10/01 10:36:42;;;;;;;;;;;;;;;14.44;60.61;100277.16;5019731;28;19952;-51
2022/10/01 10:39:19;;;;;;;;;;;;;;;14.49;60.46;100272.31;5036684;28;20581;-53
2022/10/01 10:41:45;;;;;;;;;;;;;;;14.54;60.26;100275.44;5037192;28;19931;-53
2022/10/01 10:44:13;;;;;;;;;;;;;;;14.59;60.15;100269.75;5033249;28;19925;-52
2022/10/01 10:46:38;;;;;;;;;;;;;;;14.61;60.18;100271.28;5039731;28;19932;-52
2022/10/01 10:49:06;;;;;;;;;;;;;;;14.64;60.02;100268.41;5042093;28;19935;-51
2022/10/01 10:51:42;;;;;;;;;;;;;;;14.64;60.03;100273.69;5038740;28;20067;-51
2022/10/01 10:54:26;;;;;;;;;;;;;;;14.65;60.02;100269.25;5038478;28;19920;-51
2022/10/01 10:56:52;;;;;;;;;;;;;;;14.67;59.96;100269.94;5037460;28;20023;-50
2022/10/01 10:59:18;;;;;;;;;;;;;;;14.68;59.76;100270.84;5032708;28;19928;-52
2022/10/01 11:01:44;;;;;;;;;;;;;;;14.69;59.89;100273.34;5036922;28;20407;-51
2022/10/01 11:04:19;;;;;;;;;;;;;;;14.68;59.79;100270.84;5041318;28;19928;-51
2022/10/01 11:06:53;;;;;;;;;;;;;;;14.66;59.68;100272.72;5035603;28;20003;-51
2022/10/01 11:09:18;;;;;;;;;;;;;;;14.64;59.75;100265.75;5034710;28;19920;-52
2022/10/01 11:11:49;;;;;;;;;;;;;;;14.62;59.63;100258.91;5038744;28;19920;-51
2022/10/01 11:14:40;;;;;;;;;;;;;;;14.58;59.66;100253.03;5036546;28;19925;-52
2022/10/01 11:17:39;;;;;;;;;;;;;;;14.52;59.72;100266.75;4994474;28;19998;-53
2022/10/01 11:20:21;;;;;;;;;;;;;;;14.47;60.06;100253.06;4975349;28;19928;-51
2022/10/01 11:23:05;;;;;;;;;;;;;;;14.40;60.03;100254.53;5013735;28;19925;-50
2022/10/01 11:25:34;;;;;;;;;;;;;;;14.37;60.09;100252.13;5032237;28;19925;-54
2022/10/01 11:28:18;;;;;;;;;;;;;;;14.33;60.29;100252.38;5030384;28;19924;-54
2022/10/01 11:30:55;;;;;;;;;;;;;;;14.32;60.34;100248.06;5033422;28;19917;-51
2022/10/01 11:33:29;;;;;;;;;;;;;;;14.31;60.47;100251.66;5027119;28;20349;-52
2022/10/01 11:35:58;;;;;;;;;;;;;;;14.27;60.46;100236.16;5034372;28;19921;-52
2022/10/01 11:38:36;;;;;;;;;;;;;;;14.24;60.55;100239.91;5034540;28;19960;-52
2022/10/01 11:41:24;;;;;;;;;;;;;;;14.18;60.51;100245.69;5040787;28;20015;-52
2022/10/01 11:43:52;;;;;;;;;;;;;;;14.14;60.77;100242.47;5043474;28;20297;-52
2022/10/01 11:46:38;;;;;;;;;;;;;;;14.12;60.85;100238.28;5037788;28;19925;-52
2022/10/01 11:49:13;;;;;;;;;;;;;;;14.06;60.99;100244.03;5043248;28;19924;-52
2022/10/01 11:51:43;;;;;;;;;;;;;;;13.99;61.20;100244.53;5041803;28;19917;-52
2022/10/01 11:54:12;;;;;;;;;;;;;;;13.95;61.39;100250.19;5041811;28;19929;-51
2022/10/01 11:59:30;;;;;;;;;;;;;;;13.86;61.80;100244.69;5040610;28;19986;-51
2022/10/01 12:02:01;;;;;;;;;;;;;;;13.83;61.84;100238.81;5045933;28;20020;-51
2022/10/01 12:04:36;;;;;;;;;;;;;;;13.80;62.15;100239.03;5029435;28;19916;-52
2022/10/01 12:07:10;;;;;;;;;;;;;;;13.76;62.15;100242.88;5032463;28;19932;-53
2022/10/01 12:09:54;;;;;;;;;;;;;;;13.71;62.36;100235.31;5032519;28;19921;-52
2022/10/01 12:12:23;;;;;;;;;;;;;;;13.67;62.78;100232.09;5035281;28;20445;-51
2022/10/01 12:14:58;;;;;;;;;;;;;;;13.65;62.90;100238.44;5032969;28;19973;-51
2022/10/01 12:17:35;;;;;;;;;;;;;;;13.62;63.12;100225.47;5039775;28;20016;-51
2022/10/01 12:20:02;;;;;;;;;;;;;;;13.60;63.30;100237.97;5038715;28;21522;-52
2022/10/01 12:22:33;;;;;;;;;;;;;;;13.58;63.43;100224.88;5042529;28;19921;-51
2022/10/01 12:24:58;;;;;;;;;;;;;;;13.54;63.56;100228.69;5037260;28;19960;-52
2022/10/01 12:27:24;;;;;;;;;;;;;;;13.53;63.67;100222.59;5040563;28;20737;-52
2022/10/01 12:29:56;;;;;;;;;;;;;;;13.51;63.87;100219.22;5043055;28;19917;-52
2022/10/01 12:32:21;;;;;;;;;;;;;;;13.52;63.98;100220.06;5042941;28;19944;-51
2022/10/01 12:34:46;;;;;;;;;;;;;;;13.52;64.11;100218.25;5037190;28;20611;-52
2022/10/01 12:37:19;;;;;;;;;;;;;;;13.52;64.23;100222.72;5034058;28;19930;-51
2022/10/01 12:39:52;;;;;;;;;;;;;;;13.48;64.43;100214.16;5038167;28;19920;-52
2022/10/01 12:42:38;;;;;;;;;;;;;;;13.49;64.51;100215.03;5037368;28;19921;-51
2022/10/01 12:45:22;;;;;;;;;;;;;;;13.45;64.62;100217.06;5037264;28;20472;-51
2022/10/01 12:48:06;;;;;;;;;;;;;;;13.41;64.80;100208.53;5042213;28;19920;-52
2022/10/01 12:50:50;;;;;;;;;;;;;;;13.41;64.85;100218.28;5037054;28;20059;-51
2022/10/01 12:53:34;;;;;;;;;;;;;;;13.37;65.04;100212.34;5031018;28;19931;-52